sensor_id;sensor_type;location;lat;lon;timestamp;P1;durP1;ratioP1;P2;durP2;ratioP2
68106;SDS011;54892;47.488;19.026;2022-12-07T00:02:21;13.48;;;7.32;;
68106;SDS011;54892;47.488;19.026;2022-12-07T00:05:24;16.60;;;6.87;;
68106;SDS011;54892;47.488;19.026;2022-12-07T00:08:28;12.07;;;6.53;;
68106;SDS011;54892;47.488;19.026;2022-12-07T00:11:33;12.55;;;6.70;;
68106;SDS011;54892;47.488;19.026;2022-12-07T00:14:36;11.43;;;6.03;;
68106;SDS011;54892;47.488;19.026;2022-12-07T00:17:41;10.43;;;5.82;;
68106;SDS011;54892;47.488;19.026;2022-12-07T00:20:44;13.88;;;6.20;;
68106;SDS011;54892;47.488;19.026;2022-12-07T00:23:48;11.98;;;6.37;;
68106;SDS011;54892;47.488;19.026;2022-12-07T00:26:54;12.93;;;6.75;;
68106;SDS011;54892;47.488;19.026;2022-12-07T00:29:57;13.00;;;6.40;;
68106;SDS011;54892;47.488;19.026;2022-12-07T00:33:01;15.25;;;7.15;;
68106;SDS011;54892;47.488;19.026;2022-12-07T00:36:06;11.90;;;6.45;;
68106;SDS011;54892;47.488;19.026;2022-12-07T00:39:11;15.75;;;6.70;;
68106;SDS011;54892;47.488;19.026;2022-12-07T00:42:15;11.15;;;6.55;;
68106;SDS011;54892;47.488;19.026;2022-12-07T00:45:18;15.27;;;6.60;;
68106;SDS011;54892;47.488;19.026;2022-12-07T00:48:22;11.93;;;6.72;;
68106;SDS011;54892;47.488;19.026;2022-12-07T00:51:26;10.73;;;6.55;;
68106;SDS011;54892;47.488;19.026;2022-12-07T00:54:30;14.60;;;6.55;;
68106;SDS011;54892;47.488;19.026;2022-12-07T00:57:35;10.75;;;6.15;;
68106;SDS011;54892;47.488;19.026;2022-12-07T01:00:39;13.80;;;6.68;;
68106;SDS011;54892;47.488;19.026;2022-12-07T01:03:43;13.45;;;5.75;;
68106;SDS011;54892;47.488;19.026;2022-12-07T01:06:47;10.63;;;6.50;;
68106;SDS011;54892;47.488;19.026;2022-12-07T01:09:50;13.73;;;6.30;;
68106;SDS011;54892;47.488;19.026;2022-12-07T01:12:55;14.63;;;6.57;;
68106;SDS011;54892;47.488;19.026;2022-12-07T01:15:59;12.15;;;5.87;;
68106;SDS011;54892;47.488;19.026;2022-12-07T01:19:05;12.70;;;6.20;;
68106;SDS011;54892;47.488;19.026;2022-12-07T01:22:08;11.82;;;6.30;;
68106;SDS011;54892;47.488;19.026;2022-12-07T01:25:11;13.70;;;6.40;;
68106;SDS011;54892;47.488;19.026;2022-12-07T01:28:16;12.15;;;6.82;;
68106;SDS011;54892;47.488;19.026;2022-12-07T01:31:20;9.70;;;5.60;;
68106;SDS011;54892;47.488;19.026;2022-12-07T01:34:25;11.93;;;6.20;;
68106;SDS011;54892;47.488;19.026;2022-12-07T01:37:33;11.82;;;6.07;;
68106;SDS011;54892;47.488;19.026;2022-12-07T01:40:37;10.82;;;5.57;;
68106;SDS011;54892;47.488;19.026;2022-12-07T01:47:14;11.52;;;5.50;;
68106;SDS011;54892;47.488;19.026;2022-12-07T01:50:17;10.98;;;5.53;;
68106;SDS011;54892;47.488;19.026;2022-12-07T01:53:21;12.90;;;6.43;;
68106;SDS011;54892;47.488;19.026;2022-12-07T01:56:29;14.13;;;5.25;;
68106;SDS011;54892;47.488;19.026;2022-12-07T01:59:36;6.70;;;4.65;;
68106;SDS011;54892;47.488;19.026;2022-12-07T02:05:46;10.35;;;5.12;;
68106;SDS011;54892;47.488;19.026;2022-12-07T02:08:50;8.38;;;4.95;;
68106;SDS011;54892;47.488;19.026;2022-12-07T02:11:54;9.43;;;5.18;;
68106;SDS011;54892;47.488;19.026;2022-12-07T02:14:59;10.85;;;5.68;;
68106;SDS011;54892;47.488;19.026;2022-12-07T02:18:04;8.90;;;5.12;;
68106;SDS011;54892;47.488;19.026;2022-12-07T02:21:12;8.38;;;5.12;;
68106;SDS011;54892;47.488;19.026;2022-12-07T02:24:30;9.75;;;5.50;;
68106;SDS011;54892;47.488;19.026;2022-12-07T02:27:45;11.02;;;5.68;;
68106;SDS011;54892;47.488;19.026;2022-12-07T02:30:50;8.32;;;5.10;;
68106;SDS011;54892;47.488;19.026;2022-12-07T02:37:06;9.13;;;4.70;;
68106;SDS011;54892;47.488;19.026;2022-12-07T02:40:18;9.32;;;5.60;;
68106;SDS011;54892;47.488;19.026;2022-12-07T02:43:25;10.40;;;5.50;;
68106;SDS011;54892;47.488;19.026;2022-12-07T02:46:32;9.95;;;5.87;;
68106;SDS011;54892;47.488;19.026;2022-12-07T02:49:40;10.13;;;5.30;;
68106;SDS011;54892;47.488;19.026;2022-12-07T02:52:43;11.07;;;5.20;;
68106;SDS011;54892;47.488;19.026;2022-12-07T02:55:46;8.32;;;4.78;;
68106;SDS011;54892;47.488;19.026;2022-12-07T02:58:51;10.20;;;5.50;;
68106;SDS011;54892;47.488;19.026;2022-12-07T03:02:09;9.63;;;5.65;;
68106;SDS011;54892;47.488;19.026;2022-12-07T03:05:31;10.05;;;5.32;;
68106;SDS011;54892;47.488;19.026;2022-12-07T03:08:50;9.63;;;4.90;;
68106;SDS011;54892;47.488;19.026;2022-12-07T03:12:00;11.30;;;5.75;;
68106;SDS011;54892;47.488;19.026;2022-12-07T03:15:12;7.53;;;4.97;;
68106;SDS011;54892;47.488;19.026;2022-12-07T03:18:21;10.63;;;5.62;;
68106;SDS011;54892;47.488;19.026;2022-12-07T03:21:27;11.80;;;5.12;;
68106;SDS011;54892;47.488;19.026;2022-12-07T03:24:39;9.48;;;5.35;;
68106;SDS011;54892;47.488;19.026;2022-12-07T03:27:47;11.12;;;5.30;;
68106;SDS011;54892;47.488;19.026;2022-12-07T03:30:58;11.63;;;5.32;;
68106;SDS011;54892;47.488;19.026;2022-12-07T03:34:06;7.62;;;5.10;;
68106;SDS011;54892;47.488;19.026;2022-12-07T03:37:15;8.27;;;5.10;;
68106;SDS011;54892;47.488;19.026;2022-12-07T03:40:22;10.80;;;5.15;;
68106;SDS011;54892;47.488;19.026;2022-12-07T03:43:29;8.05;;;5.18;;
68106;SDS011;54892;47.488;19.026;2022-12-07T03:46:34;9.15;;;5.05;;
68106;SDS011;54892;47.488;19.026;2022-12-07T03:49:46;13.32;;;5.57;;
68106;SDS011;54892;47.488;19.026;2022-12-07T03:52:54;12.23;;;5.60;;
68106;SDS011;54892;47.488;19.026;2022-12-07T03:56:01;9.75;;;4.70;;
68106;SDS011;54892;47.488;19.026;2022-12-07T03:59:06;11.52;;;5.45;;
68106;SDS011;54892;47.488;19.026;2022-12-07T04:02:11;10.25;;;5.72;;
68106;SDS011;54892;47.488;19.026;2022-12-07T04:05:17;8.70;;;5.22;;
68106;SDS011;54892;47.488;19.026;2022-12-07T04:08:21;9.07;;;5.05;;
68106;SDS011;54892;47.488;19.026;2022-12-07T04:11:24;9.50;;;5.22;;
68106;SDS011;54892;47.488;19.026;2022-12-07T04:14:28;8.60;;;5.05;;
68106;SDS011;54892;47.488;19.026;2022-12-07T04:17:31;11.05;;;5.60;;
68106;SDS011;54892;47.488;19.026;2022-12-07T04:20:36;10.95;;;5.37;;
68106;SDS011;54892;47.488;19.026;2022-12-07T04:23:40;10.67;;;5.67;;
68106;SDS011;54892;47.488;19.026;2022-12-07T04:26:43;8.50;;;5.15;;
68106;SDS011;54892;47.488;19.026;2022-12-07T04:29:47;10.15;;;4.90;;
68106;SDS011;54892;47.488;19.026;2022-12-07T04:32:50;7.97;;;5.00;;
68106;SDS011;54892;47.488;19.026;2022-12-07T04:35:55;9.05;;;4.95;;
68106;SDS011;54892;47.488;19.026;2022-12-07T04:38:58;7.40;;;4.45;;
68106;SDS011;54892;47.488;19.026;2022-12-07T04:42:02;8.43;;;4.43;;
68106;SDS011;54892;47.488;19.026;2022-12-07T04:45:06;7.32;;;4.97;;
68106;SDS011;54892;47.488;19.026;2022-12-07T04:48:11;7.35;;;4.60;;
68106;SDS011;54892;47.488;19.026;2022-12-07T04:51:16;7.35;;;4.53;;
68106;SDS011;54892;47.488;19.026;2022-12-07T04:54:22;6.25;;;4.53;;
68106;SDS011;54892;47.488;19.026;2022-12-07T04:57:26;6.00;;;4.07;;
68106;SDS011;54892;47.488;19.026;2022-12-07T05:00:29;5.93;;;3.80;;
68106;SDS011;54892;47.488;19.026;2022-12-07T05:03:33;7.80;;;4.20;;
68106;SDS011;54892;47.488;19.026;2022-12-07T05:06:38;6.60;;;4.20;;
68106;SDS011;54892;47.488;19.026;2022-12-07T05:09:41;7.47;;;4.20;;
68106;SDS011;54892;47.488;19.026;2022-12-07T05:12:45;8.00;;;4.30;;
68106;SDS011;54892;47.488;19.026;2022-12-07T05:15:49;8.63;;;4.53;;
68106;SDS011;54892;47.488;19.026;2022-12-07T05:18:54;10.02;;;4.90;;
68106;SDS011;54892;47.488;19.026;2022-12-07T05:21:59;8.57;;;4.18;;
68106;SDS011;54892;47.488;19.026;2022-12-07T05:25:03;9.07;;;4.07;;
68106;SDS011;54892;47.488;19.026;2022-12-07T05:28:07;8.05;;;4.65;;
68106;SDS011;54892;47.488;19.026;2022-12-07T05:31:10;8.18;;;5.03;;
68106;SDS011;54892;47.488;19.026;2022-12-07T05:34:14;7.03;;;3.55;;
68106;SDS011;54892;47.488;19.026;2022-12-07T05:37:18;8.05;;;4.30;;
68106;SDS011;54892;47.488;19.026;2022-12-07T05:40:22;10.67;;;5.93;;
68106;SDS011;54892;47.488;19.026;2022-12-07T05:43:24;11.38;;;6.18;;
68106;SDS011;54892;47.488;19.026;2022-12-07T05:46:28;10.15;;;5.87;;
68106;SDS011;54892;47.488;19.026;2022-12-07T05:49:31;10.45;;;5.72;;
68106;SDS011;54892;47.488;19.026;2022-12-07T05:52:37;8.27;;;5.53;;
68106;SDS011;54892;47.488;19.026;2022-12-07T05:55:40;11.85;;;5.82;;
68106;SDS011;54892;47.488;19.026;2022-12-07T05:58:43;11.57;;;5.65;;
68106;SDS011;54892;47.488;19.026;2022-12-07T06:02:04;10.10;;;5.57;;
68106;SDS011;54892;47.488;19.026;2022-12-07T06:05:09;12.02;;;6.55;;
68106;SDS011;54892;47.488;19.026;2022-12-07T06:08:14;13.20;;;7.45;;
68106;SDS011;54892;47.488;19.026;2022-12-07T06:11:18;13.25;;;8.05;;
68106;SDS011;54892;47.488;19.026;2022-12-07T06:14:39;15.07;;;8.70;;
68106;SDS011;54892;47.488;19.026;2022-12-07T06:17:43;19.60;;;8.43;;
68106;SDS011;54892;47.488;19.026;2022-12-07T06:20:46;13.27;;;7.72;;
68106;SDS011;54892;47.488;19.026;2022-12-07T06:23:51;16.67;;;8.05;;
68106;SDS011;54892;47.488;19.026;2022-12-07T06:26:54;15.30;;;8.15;;
68106;SDS011;54892;47.488;19.026;2022-12-07T06:29:57;11.98;;;6.57;;
68106;SDS011;54892;47.488;19.026;2022-12-07T06:33:07;13.50;;;6.95;;
68106;SDS011;54892;47.488;19.026;2022-12-07T06:36:10;10.75;;;6.53;;
68106;SDS011;54892;47.488;19.026;2022-12-07T06:39:15;11.40;;;7.25;;
68106;SDS011;54892;47.488;19.026;2022-12-07T06:42:19;15.52;;;6.90;;
68106;SDS011;54892;47.488;19.026;2022-12-07T06:45:22;10.32;;;6.53;;
68106;SDS011;54892;47.488;19.026;2022-12-07T06:48:25;12.88;;;6.60;;
68106;SDS011;54892;47.488;19.026;2022-12-07T06:51:29;9.95;;;6.62;;
68106;SDS011;54892;47.488;19.026;2022-12-07T06:54:34;10.30;;;6.47;;
68106;SDS011;54892;47.488;19.026;2022-12-07T06:57:37;12.95;;;6.97;;
68106;SDS011;54892;47.488;19.026;2022-12-07T07:00:41;10.60;;;6.50;;
68106;SDS011;54892;47.488;19.026;2022-12-07T07:03:44;13.30;;;7.32;;
68106;SDS011;54892;47.488;19.026;2022-12-07T07:06:48;12.65;;;6.85;;
68106;SDS011;54892;47.488;19.026;2022-12-07T07:09:55;13.18;;;7.85;;
68106;SDS011;54892;47.488;19.026;2022-12-07T07:12:59;11.87;;;6.97;;
68106;SDS011;54892;47.488;19.026;2022-12-07T07:16:02;14.07;;;7.72;;
68106;SDS011;54892;47.488;19.026;2022-12-07T07:19:05;13.00;;;7.50;;
68106;SDS011;54892;47.488;19.026;2022-12-07T07:22:09;14.85;;;7.82;;
68106;SDS011;54892;47.488;19.026;2022-12-07T07:25:14;11.25;;;7.18;;
68106;SDS011;54892;47.488;19.026;2022-12-07T07:28:17;11.23;;;6.97;;
68106;SDS011;54892;47.488;19.026;2022-12-07T07:31:20;11.10;;;6.87;;
68106;SDS011;54892;47.488;19.026;2022-12-07T07:34:24;17.33;;;7.22;;
68106;SDS011;54892;47.488;19.026;2022-12-07T07:37:28;13.80;;;7.37;;
68106;SDS011;54892;47.488;19.026;2022-12-07T07:40:33;13.10;;;7.20;;
68106;SDS011;54892;47.488;19.026;2022-12-07T07:43:37;11.07;;;7.10;;
68106;SDS011;54892;47.488;19.026;2022-12-07T07:46:41;14.50;;;7.25;;
68106;SDS011;54892;47.488;19.026;2022-12-07T07:49:44;11.52;;;7.07;;
68106;SDS011;54892;47.488;19.026;2022-12-07T07:52:48;14.43;;;6.93;;
68106;SDS011;54892;47.488;19.026;2022-12-07T07:55:53;16.02;;;6.60;;
68106;SDS011;54892;47.488;19.026;2022-12-07T07:58:56;15.67;;;7.03;;
68106;SDS011;54892;47.488;19.026;2022-12-07T08:02:00;14.27;;;7.32;;
68106;SDS011;54892;47.488;19.026;2022-12-07T08:05:03;12.75;;;6.95;;
68106;SDS011;54892;47.488;19.026;2022-12-07T08:08:07;13.20;;;6.72;;
68106;SDS011;54892;47.488;19.026;2022-12-07T08:11:13;12.50;;;7.03;;
68106;SDS011;54892;47.488;19.026;2022-12-07T08:14:17;11.75;;;6.82;;
68106;SDS011;54892;47.488;19.026;2022-12-07T08:17:21;11.50;;;6.57;;
68106;SDS011;54892;47.488;19.026;2022-12-07T08:20:24;16.00;;;7.00;;
68106;SDS011;54892;47.488;19.026;2022-12-07T08:23:32;11.70;;;7.00;;
68106;SDS011;54892;47.488;19.026;2022-12-07T08:26:41;10.13;;;6.80;;
68106;SDS011;54892;47.488;19.026;2022-12-07T08:29:44;12.02;;;7.28;;
68106;SDS011;54892;47.488;19.026;2022-12-07T08:32:48;13.40;;;7.00;;
68106;SDS011;54892;47.488;19.026;2022-12-07T08:35:51;13.02;;;7.53;;
68106;SDS011;54892;47.488;19.026;2022-12-07T08:38:54;13.15;;;7.25;;
68106;SDS011;54892;47.488;19.026;2022-12-07T08:42:19;12.70;;;7.40;;
68106;SDS011;54892;47.488;19.026;2022-12-07T08:45:24;14.90;;;7.43;;
68106;SDS011;54892;47.488;19.026;2022-12-07T08:48:29;12.95;;;7.50;;
68106;SDS011;54892;47.488;19.026;2022-12-07T08:51:33;14.65;;;7.40;;
68106;SDS011;54892;47.488;19.026;2022-12-07T08:54:36;14.98;;;7.18;;
68106;SDS011;54892;47.488;19.026;2022-12-07T08:57:43;13.65;;;7.20;;
68106;SDS011;54892;47.488;19.026;2022-12-07T09:00:47;14.13;;;7.72;;
68106;SDS011;54892;47.488;19.026;2022-12-07T09:03:50;11.57;;;7.62;;
68106;SDS011;54892;47.488;19.026;2022-12-07T09:06:54;14.32;;;6.97;;
68106;SDS011;54892;47.488;19.026;2022-12-07T09:09:58;16.15;;;7.05;;
68106;SDS011;54892;47.488;19.026;2022-12-07T09:13:03;10.70;;;6.62;;
68106;SDS011;54892;47.488;19.026;2022-12-07T09:16:06;9.70;;;6.13;;
68106;SDS011;54892;47.488;19.026;2022-12-07T09:19:10;7.90;;;5.75;;
68106;SDS011;54892;47.488;19.026;2022-12-07T09:22:13;9.77;;;5.40;;
68106;SDS011;54892;47.488;19.026;2022-12-07T09:25:17;10.05;;;5.87;;
68106;SDS011;54892;47.488;19.026;2022-12-07T09:28:21;8.02;;;5.15;;
68106;SDS011;54892;47.488;19.026;2022-12-07T09:31:25;7.68;;;4.90;;
68106;SDS011;54892;47.488;19.026;2022-12-07T09:34:30;6.75;;;4.15;;
68106;SDS011;54892;47.488;19.026;2022-12-07T09:37:33;7.70;;;4.55;;
68106;SDS011;54892;47.488;19.026;2022-12-07T09:40:37;8.27;;;3.90;;
68106;SDS011;54892;47.488;19.026;2022-12-07T09:43:42;8.05;;;4.47;;
68106;SDS011;54892;47.488;19.026;2022-12-07T09:46:47;10.98;;;4.72;;
68106;SDS011;54892;47.488;19.026;2022-12-07T09:49:52;6.93;;;3.75;;
68106;SDS011;54892;47.488;19.026;2022-12-07T09:53:03;7.25;;;3.65;;
68106;SDS011;54892;47.488;19.026;2022-12-07T09:56:11;5.97;;;3.62;;
68106;SDS011;54892;47.488;19.026;2022-12-07T09:59:17;4.75;;;3.28;;
68106;SDS011;54892;47.488;19.026;2022-12-07T10:02:23;5.75;;;3.95;;
68106;SDS011;54892;47.488;19.026;2022-12-07T10:05:32;5.20;;;3.58;;
68106;SDS011;54892;47.488;19.026;2022-12-07T10:08:40;6.60;;;3.78;;
68106;SDS011;54892;47.488;19.026;2022-12-07T10:12:05;8.70;;;4.12;;
68106;SDS011;54892;47.488;19.026;2022-12-07T10:15:11;5.77;;;3.87;;
68106;SDS011;54892;47.488;19.026;2022-12-07T10:18:20;7.87;;;3.85;;
68106;SDS011;54892;47.488;19.026;2022-12-07T10:21:30;7.97;;;4.07;;
68106;SDS011;54892;47.488;19.026;2022-12-07T10:24:34;8.50;;;4.37;;
68106;SDS011;54892;47.488;19.026;2022-12-07T10:27:38;6.10;;;3.93;;
68106;SDS011;54892;47.488;19.026;2022-12-07T10:30:51;7.57;;;3.75;;
68106;SDS011;54892;47.488;19.026;2022-12-07T10:33:58;7.50;;;4.22;;
68106;SDS011;54892;47.488;19.026;2022-12-07T10:37:07;5.60;;;4.10;;
68106;SDS011;54892;47.488;19.026;2022-12-07T10:40:31;6.55;;;4.07;;
68106;SDS011;54892;47.488;19.026;2022-12-07T10:43:36;10.13;;;4.20;;
68106;SDS011;54892;47.488;19.026;2022-12-07T10:50:22;4.30;;;3.08;;
68106;SDS011;54892;47.488;19.026;2022-12-07T10:53:47;4.78;;;3.60;;
68106;SDS011;54892;47.488;19.026;2022-12-07T10:57:17;11.55;;;3.90;;
68106;SDS011;54892;47.488;19.026;2022-12-07T11:00:30;8.65;;;3.70;;
68106;SDS011;54892;47.488;19.026;2022-12-07T11:03:52;8.55;;;4.30;;
68106;SDS011;54892;47.488;19.026;2022-12-07T11:07:02;6.12;;;3.92;;
68106;SDS011;54892;47.488;19.026;2022-12-07T11:10:12;8.27;;;4.07;;
68106;SDS011;54892;47.488;19.026;2022-12-07T11:13:25;5.55;;;3.97;;
68106;SDS011;54892;47.488;19.026;2022-12-07T11:16:34;7.22;;;4.40;;
68106;SDS011;54892;47.488;19.026;2022-12-07T11:19:52;5.97;;;3.45;;
68106;SDS011;54892;47.488;19.026;2022-12-07T11:23:09;13.65;;;4.78;;
68106;SDS011;54892;47.488;19.026;2022-12-07T11:26:23;8.50;;;3.97;;
68106;SDS011;54892;47.488;19.026;2022-12-07T11:29:40;6.20;;;3.78;;
68106;SDS011;54892;47.488;19.026;2022-12-07T11:33:05;6.55;;;4.03;;
68106;SDS011;54892;47.488;19.026;2022-12-07T11:36:27;5.47;;;4.22;;
68106;SDS011;54892;47.488;19.026;2022-12-07T11:39:39;8.82;;;4.68;;
68106;SDS011;54892;47.488;19.026;2022-12-07T11:42:49;6.68;;;4.30;;
68106;SDS011;54892;47.488;19.026;2022-12-07T11:45:58;8.18;;;4.60;;
68106;SDS011;54892;47.488;19.026;2022-12-07T11:49:07;5.47;;;3.83;;
68106;SDS011;54892;47.488;19.026;2022-12-07T11:52:18;5.93;;;3.90;;
68106;SDS011;54892;47.488;19.026;2022-12-07T11:55:26;5.30;;;3.80;;
68106;SDS011;54892;47.488;19.026;2022-12-07T11:58:38;5.35;;;3.97;;
68106;SDS011;54892;47.488;19.026;2022-12-07T12:01:52;5.93;;;3.95;;
68106;SDS011;54892;47.488;19.026;2022-12-07T12:05:01;7.62;;;4.50;;
68106;SDS011;54892;47.488;19.026;2022-12-07T12:08:13;8.63;;;4.25;;
68106;SDS011;54892;47.488;19.026;2022-12-07T12:11:43;11.50;;;4.35;;
68106;SDS011;54892;47.488;19.026;2022-12-07T12:18:41;7.32;;;3.70;;
68106;SDS011;54892;47.488;19.026;2022-12-07T12:21:59;8.55;;;4.37;;
68106;SDS011;54892;47.488;19.026;2022-12-07T12:25:17;7.40;;;4.12;;
68106;SDS011;54892;47.488;19.026;2022-12-07T12:28:25;6.57;;;3.75;;
68106;SDS011;54892;47.488;19.026;2022-12-07T12:31:35;9.30;;;4.65;;
68106;SDS011;54892;47.488;19.026;2022-12-07T12:34:41;10.25;;;4.55;;
68106;SDS011;54892;47.488;19.026;2022-12-07T12:48:32;6.03;;;3.65;;
68106;SDS011;54892;47.488;19.026;2022-12-07T12:51:40;6.93;;;3.45;;
68106;SDS011;54892;47.488;19.026;2022-12-07T12:54:57;5.50;;;3.37;;
68106;SDS011;54892;47.488;19.026;2022-12-07T13:01:40;7.03;;;3.75;;
68106;SDS011;54892;47.488;19.026;2022-12-07T13:04:50;6.53;;;3.90;;
68106;SDS011;54892;47.488;19.026;2022-12-07T13:07:56;9.68;;;4.10;;
68106;SDS011;54892;47.488;19.026;2022-12-07T13:11:15;7.68;;;3.80;;
68106;SDS011;54892;47.488;19.026;2022-12-07T13:14:42;5.18;;;3.85;;
68106;SDS011;54892;47.488;19.026;2022-12-07T13:18:03;4.00;;;3.08;;
68106;SDS011;54892;47.488;19.026;2022-12-07T13:21:41;5.82;;;3.58;;
68106;SDS011;54892;47.488;19.026;2022-12-07T13:24:46;5.40;;;3.50;;
68106;SDS011;54892;47.488;19.026;2022-12-07T13:27:51;5.50;;;3.50;;
68106;SDS011;54892;47.488;19.026;2022-12-07T13:31:23;6.70;;;3.37;;
68106;SDS011;54892;47.488;19.026;2022-12-07T13:34:34;6.28;;;3.42;;
68106;SDS011;54892;47.488;19.026;2022-12-07T13:37:38;6.60;;;3.20;;
68106;SDS011;54892;47.488;19.026;2022-12-07T13:40:41;6.43;;;3.58;;
68106;SDS011;54892;47.488;19.026;2022-12-07T13:43:49;6.55;;;4.00;;
68106;SDS011;54892;47.488;19.026;2022-12-07T13:46:59;4.97;;;3.70;;
68106;SDS011;54892;47.488;19.026;2022-12-07T13:50:21;7.45;;;4.28;;
68106;SDS011;54892;47.488;19.026;2022-12-07T13:53:25;6.12;;;4.22;;
68106;SDS011;54892;47.488;19.026;2022-12-07T13:56:34;7.32;;;4.62;;
68106;SDS011;54892;47.488;19.026;2022-12-07T13:59:41;7.40;;;4.05;;
68106;SDS011;54892;47.488;19.026;2022-12-07T14:02:55;6.68;;;3.85;;
68106;SDS011;54892;47.488;19.026;2022-12-07T14:09:29;7.00;;;3.72;;
68106;SDS011;54892;47.488;19.026;2022-12-07T14:12:32;10.60;;;4.43;;
68106;SDS011;54892;47.488;19.026;2022-12-07T14:15:39;8.73;;;3.92;;
68106;SDS011;54892;47.488;19.026;2022-12-07T14:18:44;10.18;;;4.95;;
68106;SDS011;54892;47.488;19.026;2022-12-07T14:21:48;12.00;;;4.30;;
68106;SDS011;54892;47.488;19.026;2022-12-07T14:25:17;8.57;;;3.97;;
68106;SDS011;54892;47.488;19.026;2022-12-07T14:28:26;9.13;;;4.37;;
68106;SDS011;54892;47.488;19.026;2022-12-07T14:31:30;10.05;;;4.40;;
68106;SDS011;54892;47.488;19.026;2022-12-07T14:34:36;7.13;;;4.37;;
68106;SDS011;54892;47.488;19.026;2022-12-07T14:37:40;9.75;;;4.72;;
68106;SDS011;54892;47.488;19.026;2022-12-07T14:40:45;23.70;;;4.68;;
68106;SDS011;54892;47.488;19.026;2022-12-07T14:43:48;7.00;;;4.32;;
68106;SDS011;54892;47.488;19.026;2022-12-07T14:47:00;8.15;;;4.35;;
68106;SDS011;54892;47.488;19.026;2022-12-07T14:50:25;9.43;;;4.35;;
68106;SDS011;54892;47.488;19.026;2022-12-07T14:53:29;12.47;;;4.43;;
68106;SDS011;54892;47.488;19.026;2022-12-07T14:56:36;8.38;;;4.82;;
68106;SDS011;54892;47.488;19.026;2022-12-07T14:59:39;12.25;;;4.62;;
68106;SDS011;54892;47.488;19.026;2022-12-07T15:02:45;8.38;;;4.87;;
68106;SDS011;54892;47.488;19.026;2022-12-07T15:05:51;8.73;;;4.85;;
68106;SDS011;54892;47.488;19.026;2022-12-07T15:08:54;12.47;;;5.60;;
68106;SDS011;54892;47.488;19.026;2022-12-07T15:11:58;8.40;;;4.87;;
68106;SDS011;54892;47.488;19.026;2022-12-07T15:15:05;8.27;;;4.65;;
68106;SDS011;54892;47.488;19.026;2022-12-07T15:18:08;9.15;;;5.30;;
68106;SDS011;54892;47.488;19.026;2022-12-07T15:21:13;10.43;;;4.85;;
68106;SDS011;54892;47.488;19.026;2022-12-07T15:24:18;9.27;;;4.62;;
68106;SDS011;54892;47.488;19.026;2022-12-07T15:27:23;9.30;;;4.97;;
68106;SDS011;54892;47.488;19.026;2022-12-07T15:30:26;11.23;;;5.55;;
68106;SDS011;54892;47.488;19.026;2022-12-07T15:33:29;11.48;;;5.12;;
68106;SDS011;54892;47.488;19.026;2022-12-07T15:36:34;8.20;;;5.05;;
68106;SDS011;54892;47.488;19.026;2022-12-07T15:39:38;9.13;;;5.72;;
68106;SDS011;54892;47.488;19.026;2022-12-07T15:42:41;9.27;;;5.47;;
68106;SDS011;54892;47.488;19.026;2022-12-07T15:45:46;7.40;;;4.80;;
68106;SDS011;54892;47.488;19.026;2022-12-07T15:48:51;8.20;;;4.85;;
68106;SDS011;54892;47.488;19.026;2022-12-07T15:51:57;8.85;;;4.70;;
68106;SDS011;54892;47.488;19.026;2022-12-07T15:55:01;15.32;;;4.87;;
68106;SDS011;54892;47.488;19.026;2022-12-07T15:58:05;13.05;;;4.53;;
68106;SDS011;54892;47.488;19.026;2022-12-07T16:01:12;13.40;;;4.70;;
68106;SDS011;54892;47.488;19.026;2022-12-07T16:04:16;6.53;;;4.47;;
68106;SDS011;54892;47.488;19.026;2022-12-07T16:07:21;12.70;;;4.50;;
68106;SDS011;54892;47.488;19.026;2022-12-07T16:13:29;6.70;;;4.55;;
68106;SDS011;54892;47.488;19.026;2022-12-07T16:16:32;8.88;;;4.90;;
68106;SDS011;54892;47.488;19.026;2022-12-07T16:19:35;17.48;;;4.97;;
68106;SDS011;54892;47.488;19.026;2022-12-07T16:22:41;8.90;;;5.70;;
68106;SDS011;54892;47.488;19.026;2022-12-07T16:25:45;7.95;;;4.72;;
68106;SDS011;54892;47.488;19.026;2022-12-07T16:28:49;12.82;;;5.18;;
68106;SDS011;54892;47.488;19.026;2022-12-07T16:31:53;10.35;;;5.75;;
68106;SDS011;54892;47.488;19.026;2022-12-07T16:34:57;10.60;;;6.05;;
68106;SDS011;54892;47.488;19.026;2022-12-07T16:38:02;13.93;;;6.45;;
68106;SDS011;54892;47.488;19.026;2022-12-07T16:41:05;11.52;;;5.80;;
68106;SDS011;54892;47.488;19.026;2022-12-07T16:44:10;11.18;;;5.32;;
68106;SDS011;54892;47.488;19.026;2022-12-07T16:47:15;12.95;;;5.65;;
68106;SDS011;54892;47.488;19.026;2022-12-07T16:50:19;11.73;;;5.53;;
68106;SDS011;54892;47.488;19.026;2022-12-07T16:53:23;12.27;;;5.80;;
68106;SDS011;54892;47.488;19.026;2022-12-07T16:56:27;14.10;;;6.40;;
68106;SDS011;54892;47.488;19.026;2022-12-07T16:59:31;15.98;;;6.37;;
68106;SDS011;54892;47.488;19.026;2022-12-07T17:02:35;14.93;;;6.40;;
68106;SDS011;54892;47.488;19.026;2022-12-07T17:05:39;12.48;;;6.22;;
68106;SDS011;54892;47.488;19.026;2022-12-07T17:08:44;13.80;;;6.15;;
68106;SDS011;54892;47.488;19.026;2022-12-07T17:11:48;15.88;;;6.03;;
68106;SDS011;54892;47.488;19.026;2022-12-07T17:14:51;12.37;;;6.10;;
68106;SDS011;54892;47.488;19.026;2022-12-07T17:18:13;11.77;;;5.85;;
68106;SDS011;54892;47.488;19.026;2022-12-07T17:21:16;11.18;;;5.57;;
68106;SDS011;54892;47.488;19.026;2022-12-07T17:24:21;9.57;;;5.70;;
68106;SDS011;54892;47.488;19.026;2022-12-07T17:27:25;16.60;;;6.60;;
68106;SDS011;54892;47.488;19.026;2022-12-07T17:30:30;12.85;;;6.62;;
68106;SDS011;54892;47.488;19.026;2022-12-07T17:33:34;11.57;;;6.65;;
68106;SDS011;54892;47.488;19.026;2022-12-07T17:36:38;11.75;;;6.10;;
68106;SDS011;54892;47.488;19.026;2022-12-07T17:39:44;12.75;;;6.28;;
68106;SDS011;54892;47.488;19.026;2022-12-07T17:42:48;11.75;;;6.53;;
68106;SDS011;54892;47.488;19.026;2022-12-07T17:45:53;14.10;;;6.80;;
68106;SDS011;54892;47.488;19.026;2022-12-07T17:48:57;13.80;;;6.12;;
68106;SDS011;54892;47.488;19.026;2022-12-07T17:52:01;14.77;;;6.30;;
68106;SDS011;54892;47.488;19.026;2022-12-07T17:55:24;10.10;;;5.87;;
68106;SDS011;54892;47.488;19.026;2022-12-07T17:58:30;9.48;;;5.50;;
68106;SDS011;54892;47.488;19.026;2022-12-07T18:01:34;8.23;;;5.37;;
68106;SDS011;54892;47.488;19.026;2022-12-07T18:04:38;11.52;;;5.50;;
68106;SDS011;54892;47.488;19.026;2022-12-07T18:07:42;11.32;;;5.40;;
68106;SDS011;54892;47.488;19.026;2022-12-07T18:10:47;9.98;;;5.90;;
68106;SDS011;54892;47.488;19.026;2022-12-07T18:13:51;12.52;;;6.40;;
68106;SDS011;54892;47.488;19.026;2022-12-07T18:16:55;14.98;;;6.53;;
68106;SDS011;54892;47.488;19.026;2022-12-07T18:19:59;20.88;;;6.95;;
68106;SDS011;54892;47.488;19.026;2022-12-07T18:23:03;13.52;;;6.72;;
68106;SDS011;54892;47.488;19.026;2022-12-07T18:26:08;13.70;;;7.22;;
68106;SDS011;54892;47.488;19.026;2022-12-07T18:29:13;12.90;;;7.00;;
68106;SDS011;54892;47.488;19.026;2022-12-07T18:32:17;12.68;;;6.93;;
68106;SDS011;54892;47.488;19.026;2022-12-07T18:35:22;16.23;;;7.75;;
68106;SDS011;54892;47.488;19.026;2022-12-07T18:38:28;15.40;;;6.97;;
68106;SDS011;54892;47.488;19.026;2022-12-07T18:41:34;11.85;;;7.03;;
68106;SDS011;54892;47.488;19.026;2022-12-07T18:44:38;13.80;;;6.50;;
68106;SDS011;54892;47.488;19.026;2022-12-07T18:47:42;12.37;;;6.97;;
68106;SDS011;54892;47.488;19.026;2022-12-07T18:50:58;15.07;;;7.10;;
68106;SDS011;54892;47.488;19.026;2022-12-07T18:54:04;13.43;;;7.20;;
68106;SDS011;54892;47.488;19.026;2022-12-07T18:57:11;12.37;;;7.22;;
68106;SDS011;54892;47.488;19.026;2022-12-07T19:00:17;17.05;;;7.50;;